Time;durP1;ratioP1;P1;durP2;ratioP2;P2;SDS_P1;SDS_P2;PMS_P1;PMS_P2;Temp;Humidity;BMP_temperature;BMP_pressure;BME280_temperature;BME280_humidity;BME280_pressure;Samples;Min_cycle;Max_cycle;Signal;HPM_P1;HPM_P2
2022/06/18 00:00:14;;;;;;;2.17;1.00;;;13.60;99.90;;;;;;5034539;28;20014;-69
2022/06/18 00:02:41;;;;;;;2.97;0.82;;;13.60;99.90;;;;;;5050473;28;20082;-70
2022/06/18 00:05:11;;;;;;;4.47;1.10;;;13.70;99.90;;;;;;5065630;28;20480;-69
2022/06/18 00:07:42;;;;;;;4.40;1.10;;;13.80;99.90;;;;;;5050415;28;20032;-70
2022/06/18 00:10:23;;;;;;;2.95;1.10;;;13.90;99.90;;;;;;5050990;28;20048;-70
2022/06/18 00:15:39;;;;;;;5.07;1.13;;;14.10;99.90;;;;;;5045605;28;20086;-70
2022/06/18 00:18:14;;;;;;;2.55;1.27;;;14.20;99.90;;;;;;5030295;28;20033;-70
2022/06/18 00:20:42;;;;;;;2.33;0.98;;;14.30;99.90;;;;;;5040234;28;20424;-71
2022/06/18 00:23:15;;;;;;;2.03;1.10;;;14.40;99.90;;;;;;5052459;28;20373;-69
2022/06/18 00:25:45;;;;;;;2.38;0.90;;;14.50;99.90;;;;;;5054707;28;20029;-70
2022/06/18 00:28:16;;;;;;;6.40;1.88;;;14.60;99.90;;;;;;5054488;28;20024;-72
2022/06/18 00:30:44;;;;;;;5.75;2.33;;;14.90;99.90;;;;;;5054516;28;20029;-70
2022/06/18 00:33:11;;;;;;;5.57;1.30;;;15.10;99.90;;;;;;5054094;28;20385;-71
2022/06/18 00:35:40;;;;;;;4.90;1.42;;;15.30;99.80;;;;;;5053496;28;20738;-69
2022/06/18 00:38:13;;;;;;;3.08;1.17;;;15.40;99.50;;;;;;5052649;28;20530;-69
2022/06/18 00:40:45;;;;;;;5.57;1.40;;;15.60;99.60;;;;;;5067770;28;20366;-70
2022/06/18 00:43:47;;;;;;;10.27;3.30;;;15.70;99.70;;;;;;5046478;28;20044;-70
2022/06/18 00:46:35;;;;;;;5.55;1.10;;;15.90;99.80;;;;;;5033011;28;20262;-70
2022/06/18 00:49:07;;;;;;;7.53;2.00;;;16.00;99.80;;;;;;5044082;28;20067;-69
2022/06/18 00:51:53;;;;;;;9.02;2.00;;;16.00;99.70;;;;;;5053516;28;20393;-67
2022/06/18 00:55:02;;;;;;;6.18;1.98;;;16.00;99.60;;;;;;5053642;28;20041;-66
2022/06/18 00:58:06;;;;;;;15.95;2.63;;;16.00;99.80;;;;;;5051546;28;20451;-67
2022/06/18 01:00:49;;;;;;;6.07;2.00;;;16.00;99.70;;;;;;5018476;28;20041;-70
2022/06/18 01:03:26;;;;;;;;;;;15.90;99.90;;;;;;5034950;28;20018;-68
2022/06/18 01:05:56;;;;;;;5.35;1.55;;;15.90;99.90;;;;;;5033884;28;20299;-67
2022/06/18 01:08:26;;;;;;;5.90;2.67;;;15.90;99.90;;;;;;5034142;28;20067;-71
2022/06/18 01:11:00;;;;;;;7.93;2.33;;;15.90;99.90;;;;;;5044396;28;20017;-69
2022/06/18 01:13:35;;;;;;;5.38;1.40;;;16.00;99.80;;;;;;5053852;28;20028;-68
2022/06/18 01:16:04;;;;;;;7.50;1.95;;;16.00;99.70;;;;;;5053355;28;20497;-68
2022/06/18 01:18:32;;;;;;;4.82;1.65;;;16.00;99.60;;;;;;5053169;28;20025;-69
2022/06/18 01:21:15;;;;;;;11.43;3.25;;;16.00;99.70;;;;;;5013977;28;20030;-70
2022/06/18 01:23:54;;;;;;;5.75;2.05;;;16.10;99.70;;;;;;5013783;28;20030;-68
2022/06/18 01:26:22;;;;;;;7.30;2.47;;;16.10;99.80;;;;;;5059952;28;20471;-69
2022/06/18 01:28:51;;;;;;;8.00;2.15;;;16.10;99.70;;;;;;5034308;28;20045;-68
2022/06/18 01:31:19;;;;;;;8.65;3.00;;;16.20;99.60;;;;;;5034065;28;20017;-68
2022/06/18 01:33:49;;;;;;;6.82;3.35;;;16.20;99.60;;;;;;5047885;28;20032;-69
2022/06/18 01:36:16;;;;;;;7.32;2.72;;;16.30;99.80;;;;;;5068688;28;20079;-69
2022/06/18 01:38:45;;;;;;;8.82;3.13;;;16.30;99.60;;;;;;5053029;28;20017;-70
2022/06/18 01:44:39;;;;;;;5.97;1.85;;;16.40;99.40;;;;;;5037968;28;20049;-71
2022/06/18 01:47:20;;;;;;;8.35;2.38;;;16.50;99.20;;;;;;5051745;28;20500;-72
2022/06/18 01:50:15;;;;;;;6.95;2.15;;;16.50;99.00;;;;;;5053449;28;20024;-68
2022/06/18 01:52:52;;;;;;;9.25;3.75;;;16.50;99.00;;;;;;5052937;28;20017;-72
2022/06/18 01:55:29;;;;;;;8.15;2.55;;;16.60;99.20;;;;;;5052810;28;20053;-69
2022/06/18 01:58:06;;;;;;;9.40;3.08;;;16.60;99.30;;;;;;5052570;28;20021;-69
2022/06/18 02:00:34;;;;;;;7.63;3.10;;;16.60;99.30;;;;;;5052795;28;20017;-72
2022/06/18 02:03:03;;;;;;;4.03;1.90;;;16.60;99.40;;;;;;5052149;28;20056;-70
2022/06/18 02:05:31;;;;;;;10.13;2.10;;;16.60;99.50;;;;;;5052640;28;20543;-70
2022/06/18 02:08:00;;;;;;;9.18;2.50;;;16.60;99.40;;;;;;5052635;28;20025;-69
2022/06/18 02:10:33;;;;;;;8.02;2.30;;;16.60;99.50;;;;;;5052737;28;20113;-68
2022/06/18 02:13:03;;;;;;;7.35;3.00;;;16.60;99.40;;;;;;5052505;28;20023;-70
2022/06/18 02:15:36;;;;;;;7.65;1.83;;;16.60;99.50;;;;;;5052834;28;20017;-69
2022/06/18 02:18:09;;;;;;;12.35;3.10;;;16.70;99.50;;;;;;5052156;28;20078;-70
2022/06/18 02:20:43;;;;;;;8.52;4.10;;;16.80;99.30;;;;;;5052256;28;20492;-73
2022/06/18 02:23:11;;;;;;;9.07;4.28;;;16.80;99.30;;;;;;5052683;28;20920;-70
2022/06/18 02:25:39;;;;;;;8.27;2.63;;;16.80;99.10;;;;;;5052164;28;20116;-72
2022/06/18 02:28:26;;;;;;;10.55;4.32;;;16.90;99.00;;;;;;5042488;28;20021;-72
2022/06/18 02:30:58;;;;;;;9.52;3.40;;;16.90;99.10;;;;;;5026361;28;20080;-71
2022/06/18 02:33:31;;;;;;;7.75;3.10;;;17.00;99.00;;;;;;5032691;28;20017;-71
2022/06/18 02:36:29;;;;;;;11.85;3.25;;;17.00;98.90;;;;;;5038767;28;20466;-71
2022/06/18 02:39:09;;;;;;;8.05;1.63;;;17.10;99.00;;;;;;5050783;28;20044;-70
2022/06/18 02:41:41;;;;;;;5.28;1.30;;;17.10;98.70;;;;;;5052594;28;20017;-73
2022/06/18 02:44:11;;;;;;;9.43;2.37;;;17.30;98.80;;;;;;5052517;28;20087;-73
2022/06/18 02:46:39;;;;;;;7.95;1.75;;;17.70;98.40;;;;;;5051791;28;20025;-72
2022/06/18 02:49:10;;;;;;;7.35;1.50;;;18.00;97.50;;;;;;5034606;28;20554;-70
2022/06/18 02:51:37;;;;;;;6.65;2.45;;;18.50;96.90;;;;;;5032826;28;20750;-72
2022/06/18 02:54:08;;;;;;;7.13;1.90;;;19.00;96.20;;;;;;5048470;28;20051;-73
2022/06/18 02:56:35;;;;;;;8.68;2.35;;;19.50;96.10;;;;;;5050135;28;20029;-70
2022/06/18 02:59:04;;;;;;;7.28;2.85;;;20.10;95.00;;;;;;5051528;28;20033;-72
2022/06/18 03:01:32;;;;;;;6.70;2.30;;;20.50;94.10;;;;;;5052009;28;20104;-69
2022/06/18 03:04:01;;;;;;;6.57;2.65;;;20.50;93.60;;;;;;5044398;28;20114;-69
2022/06/18 03:06:33;;;;;;;7.15;1.60;;;20.20;93.70;;;;;;5036714;28;20067;-70
2022/06/18 03:09:01;;;;;;;7.10;2.35;;;19.80;94.10;;;;;;5031788;28;20044;-68
2022/06/18 03:14:15;;;;;;;15.38;6.60;;;19.30;95.00;;;;;;5031379;28;20091;-71
2022/06/18 03:16:43;;;;;;;14.13;8.57;;;19.00;95.40;;;;;;5031556;28;20104;-70
2022/06/18 03:19:35;;;;;;;9.40;3.10;;;18.80;95.80;;;;;;5049896;28;20112;-69
2022/06/18 03:22:21;;;;;;;8.33;4.40;;;18.70;96.10;;;;;;5051906;28;20027;-75
2022/06/18 03:24:48;;;;;;;9.80;2.75;;;18.70;96.40;;;;;;5051177;28;20029;-71
2022/06/18 03:27:17;;;;;;;7.38;2.85;;;19.20;96.00;;;;;;5051093;28;20043;-72
2022/06/18 03:29:46;;;;;;;10.00;2.45;;;19.50;95.50;;;;;;5066440;28;20056;-70
2022/06/18 03:32:14;;;;;;;14.23;8.80;;;20.00;95.10;;;;;;5051358;28;20036;-70
2022/06/18 03:34:41;;;;;;;5.55;1.85;;;20.50;94.00;;;;;;5042299;28;20378;-67
2022/06/18 03:37:08;;;;;;;10.38;2.53;;;21.30;93.10;;;;;;5040245;28;20022;-70
2022/06/18 03:39:36;;;;;;;6.53;2.05;;;21.90;91.70;;;;;;5031155;28;20378;-73
2022/06/18 03:42:04;;;;;;;6.55;1.73;;;22.40;91.00;;;;;;5030629;28;20067;-73
2022/06/18 03:44:32;;;;;;;5.70;1.70;;;22.80;90.30;;;;;;5030039;28;20072;-68
2022/06/18 03:47:00;;;;;;;9.23;1.83;;;23.10;89.00;;;;;;5036152;28;20104;-74
2022/06/18 03:49:31;;;;;;;8.13;2.15;;;23.20;88.40;;;;;;5028892;28;20029;-69
2022/06/18 03:52:00;;;;;;;7.88;2.53;;;23.50;88.00;;;;;;5030561;28;20014;-71
2022/06/18 03:54:27;;;;;;;5.38;2.55;;;23.70;87.00;;;;;;5029616;28;20042;-69
2022/06/18 03:56:55;;;;;;;8.13;3.50;;;23.90;86.30;;;;;;5032143;28;20014;-69
2022/06/18 03:59:23;;;;;;;6.03;2.20;;;24.10;85.30;;;;;;5034208;28;20025;-70
2022/06/18 04:01:51;;;;;;;10.50;5.18;;;23.60;85.80;;;;;;5035528;28;20040;-70
2022/06/18 04:04:18;;;;;;;8.45;3.85;;;23.00;86.90;;;;;;5032325;28;20033;-70
2022/06/18 04:06:46;;;;;;;8.25;2.70;;;22.50;88.60;;;;;;5032773;28;20100;-78
2022/06/18 04:09:13;;;;;;;9.57;2.47;;;22.00;90.00;;;;;;5034065;28;20044;-72
2022/06/18 04:11:40;;;;;;;6.72;2.15;;;21.40;90.60;;;;;;5034374;28;20441;-72
2022/06/18 04:14:08;;;;;;;8.93;2.45;;;20.90;91.40;;;;;;5033278;28;20025;-72
2022/06/18 04:16:35;;;;;;;8.55;2.72;;;20.70;91.90;;;;;;5033722;28;20025;-75
2022/06/18 04:19:03;;;;;;;10.68;2.83;;;20.30;92.10;;;;;;5034291;28;20184;-69
2022/06/18 04:21:30;;;;;;;10.70;2.50;;;19.90;92.70;;;;;;5034535;28;20540;-69
2022/06/18 04:23:58;;;;;;;8.85;2.17;;;19.50;93.40;;;;;;5067807;28;20044;-70
2022/06/18 04:26:25;;;;;;;7.90;2.53;;;19.30;93.70;;;;;;5036684;28;20575;-71
2022/06/18 04:28:52;;;;;;;9.07;3.40;;;19.10;94.10;;;;;;5039373;28;20062;-69
2022/06/18 04:31:20;;;;;;;9.98;3.35;;;18.90;94.20;;;;;;5032214;28;20704;-70
2022/06/18 04:33:47;;;;;;;8.13;4.07;;;18.70;94.60;;;;;;5033662;28;20021;-69
2022/06/18 04:36:38;;;;;;;9.48;4.80;;;18.60;94.90;;;;;;5030783;28;20029;-70
2022/06/18 04:39:06;;;;;;;7.18;2.08;;;18.50;95.20;;;;;;5040518;28;20025;-69
2022/06/18 04:41:34;;;;;;;8.00;2.72;;;18.40;95.30;;;;;;5054242;28;20025;-70
2022/06/18 04:44:02;;;;;;;8.32;1.88;;;18.30;95.50;;;;;;5038779;28;20072;-70
2022/06/18 04:46:30;;;;;;;7.53;2.25;;;18.30;95.60;;;;;;5036062;28;20025;-70
2022/06/18 04:48:57;;;;;;;10.27;3.58;;;18.10;95.80;;;;;;5034275;28;20029;-73
2022/06/18 04:51:25;;;;;;;12.55;3.67;;;18.10;95.80;;;;;;5033357;28;20025;-70
2022/06/18 04:53:52;;;;;;;16.73;7.97;;;18.10;96.10;;;;;;5034331;28;20041;-69
2022/06/18 04:56:19;;;;;;;11.77;5.45;;;18.10;96.20;;;;;;5035031;28;20104;-71
2022/06/18 04:58:47;;;;;;;9.00;4.20;;;18.20;96.20;;;;;;5014306;28;20466;-69
2022/06/18 05:01:20;;;;;;;13.30;4.30;;;18.20;96.10;;;;;;5014057;28;20533;-69
2022/06/18 05:03:48;;;;;;;11.15;3.55;;;18.20;96.10;;;;;;5013108;28;20022;-72
2022/06/18 05:06:16;;;;;;;9.80;4.18;;;18.20;96.00;;;;;;5016746;28;20017;-70
2022/06/18 05:08:43;;;;;;;8.52;3.20;;;18.20;96.00;;;;;;5042691;28;20013;-70
2022/06/18 05:11:10;;;;;;;7.97;3.45;;;18.30;96.00;;;;;;5052139;28;20025;-69
2022/06/18 05:13:37;;;;;;;11.75;3.88;;;18.30;96.00;;;;;;5051232;28;20021;-71
2022/06/18 05:16:07;;;;;;;12.63;2.85;;;18.30;96.00;;;;;;5050923;28;20209;-70
2022/06/18 05:18:35;;;;;;;12.68;3.75;;;18.30;96.20;;;;;;5050505;28;20544;-69
2022/06/18 05:21:03;;;;;;;10.57;3.95;;;18.30;96.10;;;;;;5050906;28;20025;-73
2022/06/18 05:23:30;;;;;;;8.32;3.45;;;18.30;96.10;;;;;;5052022;28;20024;-70
2022/06/18 05:26:00;;;;;;;7.25;2.47;;;18.30;96.00;;;;;;5052003;28;20140;-72
2022/06/18 05:28:27;;;;;;;9.32;2.10;;;18.30;96.00;;;;;;5051942;28;20067;-71
2022/06/18 05:30:55;;;;;;;11.52;2.60;;;18.30;96.00;;;;;;5052696;28;20028;-71
2022/06/18 05:33:22;;;;;;;6.00;2.15;;;18.20;96.10;;;;;;5053605;28;20373;-69
2022/06/18 05:35:49;;;;;;;7.90;3.08;;;18.30;96.10;;;;;;5052823;28;20024;-71
2022/06/18 05:38:20;;;;;;;10.77;2.53;;;18.40;95.70;;;;;;5053774;28;20023;-72
2022/06/18 05:40:48;;;;;;;8.52;3.17;;;18.50;95.70;;;;;;5053448;28;20155;-71
2022/06/18 05:43:16;;;;;;;8.43;3.13;;;18.50;95.90;;;;;;5053294;28;20059;-70
2022/06/18 05:45:44;;;;;;;13.25;3.67;;;18.50;95.60;;;;;;5052975;28;20136;-71
2022/06/18 05:48:12;;;;;;;9.50;3.42;;;18.40;96.20;;;;;;5053254;28;20021;-75
2022/06/18 05:50:40;;;;;;;10.13;3.30;;;18.50;96.00;;;;;;5053205;28;20021;-72
2022/06/18 05:53:07;;;;;;;9.82;2.50;;;18.50;95.90;;;;;;5052829;28;20021;-72
2022/06/18 05:55:35;;;;;;;10.80;2.85;;;18.50;95.90;;;;;;5051632;28;20053;-71
2022/06/18 05:58:02;;;;;;;6.57;2.60;;;18.60;95.80;;;;;;5051729;28;20021;-71
2022/06/18 06:00:32;;;;;;;9.82;2.33;;;18.80;95.30;;;;;;5035861;28;20080;-74
2022/06/18 06:02:59;;;;;;;6.75;2.00;;;18.90;95.10;;;;;;5031489;28;20057;-74
2022/06/18 06:05:27;;;;;;;7.75;2.35;;;19.10;95.00;;;;;;5029236;28;20123;-72
2022/06/18 06:07:55;;;;;;;7.53;1.85;;;19.20;94.70;;;;;;5031543;28;20026;-71
2022/06/18 06:13:22;;;;;;;6.57;1.42;;;19.20;94.10;;;;;;5027468;28;20036;-70
2022/06/18 06:15:50;;;;;;;7.90;2.22;;;19.00;94.30;;;;;;5031241;28;20040;-73
2022/06/18 06:18:19;;;;;;;5.78;1.63;;;18.70;94.50;;;;;;5030778;28;20029;-71
2022/06/18 06:20:54;;;;;;;6.78;2.33;;;18.40;94.80;;;;;;5027672;28;20682;-69
2022/06/18 06:23:22;;;;;;;9.13;2.60;;;18.20;95.20;;;;;;5031530;28;20109;-73
2022/06/18 06:25:50;;;;;;;7.00;2.13;;;17.90;95.60;;;;;;5029031;28;20079;-70
2022/06/18 06:28:19;;;;;;;5.85;2.42;;;17.70;95.90;;;;;;5032299;28;20022;-72
2022/06/18 06:30:46;;;;;;;7.78;2.58;;;17.50;96.20;;;;;;5032302;28;20585;-69
2022/06/18 06:33:14;;;;;;;9.63;2.90;;;17.40;96.60;;;;;;5030684;28;20018;-72
2022/06/18 06:35:43;;;;;;;8.65;2.70;;;17.10;96.80;;;;;;5030715;28;20462;-71
2022/06/18 06:38:12;;;;;;;6.28;3.05;;;17.00;97.30;;;;;;5029968;28;20470;-73
2022/06/18 06:40:41;;;;;;;9.38;2.60;;;16.90;97.50;;;;;;5030254;28;20048;-71
2022/06/18 06:43:15;;;;;;;7.45;3.75;;;16.70;97.60;;;;;;5027675;28;20064;-72
2022/06/18 06:45:44;;;;;;;9.32;3.67;;;16.60;98.00;;;;;;5029947;28;20033;-74
2022/06/18 06:48:12;;;;;;;12.43;5.57;;;16.50;98.20;;;;;;5038823;28;20111;-71
2022/06/18 06:50:40;;;;;;;13.45;5.00;;;16.40;98.30;;;;;;5029945;28;20128;-71
2022/06/18 06:53:07;;;;;;;7.35;3.22;;;16.30;98.70;;;;;;5029435;28;20060;-72
2022/06/18 06:58:23;;;;;;;7.40;3.47;;;16.10;98.90;;;;;;5030011;28;20024;-70
2022/06/18 07:00:57;;;;;;;10.98;3.40;;;16.10;99.20;;;;;;5028388;28;20520;-73
2022/06/18 07:03:31;;;;;;;9.68;3.47;;;16.00;99.30;;;;;;5030684;28;20033;-71
2022/06/18 07:06:01;;;;;;;14.50;3.97;;;15.90;99.50;;;;;;5030669;28;20021;-70
2022/06/18 07:08:30;;;;;;;10.57;4.30;;;15.90;99.70;;;;;;5038523;28;20025;-71
2022/06/18 07:10:57;;;;;;;11.13;5.38;;;15.80;99.80;;;;;;5066825;28;20108;-71
2022/06/18 07:13:25;;;;;;;9.82;4.03;;;15.80;99.90;;;;;;5040901;28;20025;-71
2022/06/18 07:15:53;;;;;;;9.80;4.65;;;15.70;99.90;;;;;;5029651;28;20026;-73
2022/06/18 07:18:26;;;;;;;17.70;6.15;;;15.80;99.90;;;;;;5029704;28;20100;-72
2022/06/18 07:20:53;;;;;;;7.88;3.97;;;15.70;99.90;;;;;;5028258;28;20026;-72
2022/06/18 07:23:21;;;;;;;8.77;2.78;;;15.70;99.90;;;;;;5029502;28;20013;-71
2022/06/18 07:25:48;;;;;;;9.20;2.95;;;15.60;99.90;;;;;;5028218;28;20029;-70
2022/06/18 07:28:15;;;;;;;9.77;3.72;;;15.60;99.90;;;;;;5036185;28;20033;-71
2022/06/18 07:30:46;;;;;;;12.63;3.85;;;15.60;99.90;;;;;;5050728;28;20401;-69
2022/06/18 07:33:19;;;;;;;9.85;3.47;;;15.50;99.90;;;;;;5050309;28;20025;-71
2022/06/18 07:35:46;;;;;;;8.95;3.42;;;15.60;99.90;;;;;;5070674;28;20117;-71
2022/06/18 07:38:14;;;;;;;10.82;3.85;;;15.50;99.90;;;;;;5042099;28;20029;-70
2022/06/18 07:40:49;;;;;;;8.27;2.63;;;15.50;99.90;;;;;;5066357;28;20462;-73
2022/06/18 07:43:39;;;;;;;9.55;3.17;;;15.50;99.90;;;;;;5051017;28;20033;-71
2022/06/18 07:46:08;;;;;;;13.73;2.88;;;15.50;99.90;;;;;;5065080;28;20044;-70
2022/06/18 07:48:35;;;;;;;13.55;4.65;;;15.50;99.90;;;;;;5049939;28;20020;-70
2022/06/18 07:51:03;;;;;;;12.88;5.80;;;15.40;99.90;;;;;;5033908;28;20529;-72
2022/06/18 07:53:31;;;;;;;14.02;7.28;;;15.40;99.90;;;;;;5033550;28;20021;-71
2022/06/18 07:55:59;;;;;;;14.15;7.25;;;15.40;99.90;;;;;;5037115;28;20037;-71
2022/06/18 07:58:27;;;;;;;13.13;6.60;;;15.30;99.90;;;;;;5050113;28;20014;-72
2022/06/18 08:00:55;;;;;;;15.57;4.88;;;15.30;99.90;;;;;;5049901;28;20056;-70
2022/06/18 08:03:24;;;;;;;11.32;4.63;;;15.30;99.90;;;;;;5064067;28;20036;-70
2022/06/18 08:05:53;;;;;;;13.30;6.15;;;15.30;99.90;;;;;;5038041;28;20518;-69
2022/06/18 08:08:20;;;;;;;15.70;6.50;;;15.30;99.90;;;;;;5034201;28;20028;-72
2022/06/18 08:10:50;;;;;;;13.68;5.65;;;15.20;99.90;;;;;;5036157;28;20029;-71
2022/06/18 08:13:18;;;;;;;12.95;7.00;;;15.20;99.90;;;;;;5044595;28;20065;-71
2022/06/18 08:15:46;;;;;;;14.38;7.72;;;15.10;99.90;;;;;;5029739;28;20021;-71
2022/06/18 08:18:13;;;;;;;16.80;7.70;;;15.10;99.90;;;;;;5031967;28;20061;-72
2022/06/18 08:20:41;;;;;;;13.65;8.23;;;15.10;99.90;;;;;;5028936;28;20033;-71
2022/06/18 08:23:09;;;;;;;15.32;5.78;;;15.10;99.90;;;;;;5030186;28;20021;-71
2022/06/18 08:25:39;;;;;;;13.18;3.80;;;15.00;99.90;;;;;;5029132;28;20034;-71
2022/06/18 08:28:08;;;;;;;9.68;3.63;;;15.10;99.90;;;;;;5044742;28;20028;-71
2022/06/18 08:30:36;;;;;;;8.68;3.08;;;15.00;99.90;;;;;;5038081;28;20035;-71
2022/06/18 08:33:04;;;;;;;11.27;3.88;;;15.00;99.90;;;;;;5049516;28;20049;-73
2022/06/18 08:35:31;;;;;;;11.73;3.75;;;15.00;99.90;;;;;;5041935;28;20626;-72
2022/06/18 08:37:59;;;;;;;10.73;3.80;;;15.00;99.90;;;;;;5029524;28;20497;-71
2022/06/18 08:40:55;;;;;;;14.98;3.47;;;15.00;99.90;;;;;;5034114;28;20021;-70
2022/06/18 08:43:43;;;;;;;7.25;3.58;;;15.00;99.90;;;;;;5048298;28;20059;-72
2022/06/18 08:46:22;;;;;;;10.55;3.50;;;15.00;99.90;;;;;;5038976;28;20513;-72
2022/06/18 08:49:09;;;;;;;14.07;3.97;;;14.90;99.90;;;;;;5033254;28;20429;-72
2022/06/18 08:51:45;;;;;;;12.85;3.35;;;15.00;99.90;;;;;;5034889;28;20022;-72
2022/06/18 08:54:28;;;;;;;12.60;4.13;;;14.90;99.90;;;;;;5053190;28;20048;-72
2022/06/18 08:57:25;;;;;;;9.20;4.70;;;15.00;99.90;;;;;;5034348;28;20101;-72
2022/06/18 08:59:58;;;;;;;11.70;4.32;;;14.90;99.90;;;;;;5034158;28;20513;-71
2022/06/18 09:02:36;;;;;;;11.90;4.57;;;14.90;99.90;;;;;;5054076;28;20036;-70
2022/06/18 09:05:07;;;;;;;12.50;4.40;;;14.90;99.90;;;;;;5049659;28;20041;-70
2022/06/18 09:08:06;;;;;;;12.23;4.90;;;14.90;99.90;;;;;;5033320;28;20021;-71
2022/06/18 09:10:52;;;;;;;14.43;5.53;;;14.90;99.90;;;;;;5031615;28;20041;-71
2022/06/18 09:14:00;;;;;;;9.55;4.80;;;14.80;99.90;;;;;;5049028;28;20032;-72
2022/06/18 09:17:08;;;;;;;9.18;4.30;;;14.80;99.90;;;;;;5014618;28;20040;-72
2022/06/18 09:19:37;;;;;;;9.85;4.28;;;14.80;99.90;;;;;;5034505;28;20096;-71
2022/06/18 09:22:14;;;;;;;12.02;6.25;;;14.70;99.90;;;;;;5031452;28;20025;-72
2022/06/18 09:24:47;;;;;;;11.52;4.40;;;14.70;99.90;;;;;;5033266;28;20034;-72
2022/06/18 09:27:43;;;;;;;8.82;4.68;;;14.60;99.90;;;;;;5031346;28;20401;-71
2022/06/18 09:30:18;;;;;;;14.82;5.18;;;14.50;99.90;;;;;;5033262;28;20033;-70
2022/06/18 09:32:49;;;;;;;11.70;4.07;;;14.50;99.90;;;;;;5032195;28;20037;-71
2022/06/18 09:35:43;;;;;;;8.60;4.45;;;14.50;99.90;;;;;;5034239;28;20048;-71
2022/06/18 09:38:16;;;;;;;9.43;4.30;;;14.50;99.90;;;;;;5027176;28;20461;-70
2022/06/18 09:40:53;;;;;;;8.27;3.88;;;14.50;99.90;;;;;;5032390;28;20408;-71
2022/06/18 09:43:53;;;;;;;8.63;4.50;;;14.50;99.90;;;;;;5036370;28;20024;-72
2022/06/18 09:46:30;;;;;;;10.05;5.47;;;14.60;99.90;;;;;;5031065;28;20037;-72
2022/06/18 09:48:58;;;;;;;8.25;4.15;;;14.60;99.90;;;;;;5032404;28;20022;-73
2022/06/18 09:51:35;;;;;;;10.70;4.35;;;14.60;99.90;;;;;;5032623;28;20021;-71
2022/06/18 09:54:06;;;;;;;10.30;4.78;;;14.60;99.90;;;;;;5043427;28;20436;-71
2022/06/18 09:56:46;;;;;;;12.20;4.32;;;14.60;99.90;;;;;;5036626;28;20017;-73
2022/06/18 09:59:21;;;;;;;7.32;4.05;;;14.60;99.90;;;;;;5030541;28;20022;-72
2022/06/18 10:01:53;;;;;;;10.93;4.07;;;14.60;99.90;;;;;;5034306;28;20040;-72
2022/06/18 10:07:28;;;;;;;11.18;5.15;;;14.60;99.90;;;;;;5031397;28;20041;-73
2022/06/18 10:10:07;;;;;;;10.13;5.55;;;14.60;99.90;;;;;;5029977;28;20041;-71
2022/06/18 10:12:39;;;;;;;14.07;5.57;;;14.60;99.90;;;;;;5029070;28;20049;-71
2022/06/18 10:15:10;;;;;;;11.00;6.35;;;14.70;99.90;;;;;;5031394;28;20120;-72
2022/06/18 10:18:14;;;;;;;9.98;6.13;;;14.60;99.90;;;;;;5029418;28;20029;-72
2022/06/18 10:20:58;;;;;;;13.25;7.03;;;14.60;99.90;;;;;;5029105;28;20017;-71
2022/06/18 10:23:43;;;;;;;14.35;7.90;;;14.70;99.90;;;;;;5030259;28;20076;-72
2022/06/18 10:26:32;;;;;;;12.35;7.50;;;14.60;99.90;;;;;;5030682;28;20067;-71
2022/06/18 10:29:35;;;;;;;17.67;8.02;;;14.60;99.90;;;;;;5044995;28;20024;-71
2022/06/18 10:32:21;;;;;;;10.88;5.97;;;14.60;99.90;;;;;;5034227;28;20032;-71
2022/06/18 10:35:06;;;;;;;12.18;5.82;;;14.50;99.90;;;;;;5031517;28;20029;-70
2022/06/18 10:37:47;;;;;;;14.07;5.38;;;14.50;99.90;;;;;;5032525;28;20018;-72
2022/06/18 10:40:23;;;;;;;15.65;5.50;;;14.50;99.90;;;;;;5031342;28;20470;-72
2022/06/18 10:43:31;;;;;;;7.85;4.30;;;14.40;99.90;;;;;;5062652;28;20025;-71
2022/06/18 10:46:08;;;;;;;10.63;4.97;;;14.30;99.90;;;;;;5030714;28;20038;-69
2022/06/18 10:48:36;;;;;;;11.00;5.20;;;14.30;99.90;;;;;;5030702;28;20022;-71
2022/06/18 10:51:14;;;;;;;9.65;5.15;;;14.20;99.90;;;;;;5027622;28;20026;-72
2022/06/18 10:54:00;;;;;;;10.63;6.05;;;14.10;99.90;;;;;;5030858;28;20046;-71
2022/06/18 10:56:31;;;;;;;10.20;5.68;;;14.10;99.90;;;;;;5031422;28;20021;-72
2022/06/18 10:59:03;;;;;;;11.13;5.47;;;14.10;99.90;;;;;;5029977;28;20409;-69
2022/06/18 11:01:40;;;;;;;7.63;5.40;;;14.10;99.90;;;;;;5033856;28;20486;-70
2022/06/18 11:04:28;;;;;;;9.00;5.45;;;14.00;99.90;;;;;;5028414;28;20124;-73
2022/06/18 11:07:09;;;;;;;10.63;6.20;;;14.00;99.90;;;;;;5061232;28;20026;-71
2022/06/18 11:09:44;;;;;;;12.55;6.25;;;13.90;99.90;;;;;;5029218;28;20104;-68
2022/06/18 11:12:29;;;;;;;11.20;6.53;;;13.90;99.90;;;;;;5028252;28;20093;-70
2022/06/18 11:14:56;;;;;;;10.43;7.40;;;13.80;99.90;;;;;;5031036;28;20076;-70
2022/06/18 11:17:30;;;;;;;11.60;6.47;;;13.80;99.90;;;;;;5030917;28;20021;-70
2022/06/18 11:20:29;;;;;;;10.85;6.70;;;13.70;99.90;;;;;;5027949;28;20025;-71
2022/06/18 11:23:16;;;;;;;9.18;6.80;;;13.60;99.90;;;;;;5028732;28;20432;-73
2022/06/18 11:25:50;;;;;;;14.75;7.55;;;13.60;99.90;;;;;;5028561;28;20524;-70
2022/06/18 11:28:24;;;;;;;11.10;7.20;;;13.50;99.90;;;;;;5028512;28;20026;-70
2022/06/18 11:30:53;;;;;;;10.75;6.78;;;13.40;99.90;;;;;;5031076;28;20026;-70
2022/06/18 11:33:42;;;;;;;9.75;6.50;;;13.30;99.90;;;;;;5039923;28;20108;-71
2022/06/18 11:36:19;;;;;;;11.60;7.78;;;13.20;99.90;;;;;;5031558;28;20033;-69
2022/06/18 11:38:56;;;;;;;11.77;6.32;;;13.10;99.90;;;;;;5027757;28;20017;-72
2022/06/18 11:41:45;;;;;;;13.60;6.63;;;13.00;99.90;;;;;;5032130;28;20053;-69
2022/06/18 11:44:22;;;;;;;14.55;8.63;;;13.00;99.90;;;;;;5028359;28;20025;-70
2022/06/18 11:47:02;;;;;;;12.73;7.00;;;12.90;99.90;;;;;;5030341;28;20026;-69
2022/06/18 11:49:37;;;;;;;10.65;6.65;;;12.80;99.90;;;;;;5029868;28;20699;-68
2022/06/18 11:52:21;;;;;;;12.45;7.38;;;12.70;99.90;;;;;;5031335;28;20367;-69
2022/06/18 11:55:03;;;;;;;12.63;7.00;;;12.70;99.90;;;;;;5028038;28;20049;-70
2022/06/18 11:57:46;;;;;;;11.80;7.22;;;12.70;99.90;;;;;;5026693;28;20021;-71
2022/06/18 12:00:21;;;;;;;13.25;7.22;;;12.60;99.90;;;;;;5028188;28;20029;-69
2022/06/18 12:02:55;;;;;;;14.40;6.57;;;12.50;99.90;;;;;;5030992;28;20082;-71
2022/06/18 12:05:35;;;;;;;13.48;7.10;;;12.50;99.90;;;;;;5029053;28;20036;-70
2022/06/18 12:08:05;;;;;;;8.95;5.70;;;12.40;99.90;;;;;;5027711;28;21201;-70
2022/06/18 12:10:41;;;;;;;10.90;7.10;;;12.40;99.90;;;;;;5031165;28;20021;-68
2022/06/18 12:13:15;;;;;;;10.77;6.95;;;12.30;99.90;;;;;;5027549;28;20029;-70
2022/06/18 12:16:13;;;;;;;11.43;6.43;;;12.30;99.90;;;;;;5029345;28;20029;-70
2022/06/18 12:19:10;;;;;;;11.05;6.65;;;12.30;99.90;;;;;;5034636;28;20110;-72
2022/06/18 12:21:51;;;;;;;8.20;6.35;;;12.30;99.90;;;;;;5031557;28;20032;-68
2022/06/18 12:24:29;;;;;;;8.45;4.85;;;12.20;99.90;;;;;;5033530;28;20033;-71
2022/06/18 12:26:59;;;;;;;12.50;6.38;;;12.20;99.90;;;;;;5031021;28;20820;-69
2022/06/18 12:29:53;;;;;;;10.32;6.03;;;12.10;99.90;;;;;;5029053;28;20029;-72
2022/06/18 12:32:33;;;;;;;10.65;6.10;;;12.20;99.90;;;;;;5033368;28;20133;-71
2022/06/18 12:35:03;;;;;;;8.48;5.95;;;12.10;99.90;;;;;;5049175;28;20072;-71
2022/06/18 12:37:44;;;;;;;11.93;5.80;;;12.10;99.90;;;;;;5032873;28;20029;-70
2022/06/18 12:40:30;;;;;;;11.85;5.47;;;12.10;99.90;;;;;;5031087;28;20478;-71
2022/06/18 12:43:08;;;;;;;9.77;5.85;;;12.00;99.90;;;;;;5032140;28;20494;-70
2022/06/18 12:46:04;;;;;;;10.13;4.95;;;12.00;99.90;;;;;;5033386;28;20056;-72
2022/06/18 12:48:46;;;;;;;8.95;5.75;;;12.00;99.90;;;;;;5034709;28;20039;-72
2022/06/18 12:51:34;;;;;;;9.45;4.35;;;11.90;99.90;;;;;;5032889;28;20029;-72
2022/06/18 12:54:42;;;;;;;9.15;4.93;;;11.90;99.90;;;;;;5033137;28;20612;-71
2022/06/18 12:57:53;;;;;;;9.32;5.00;;;11.80;99.90;;;;;;5032976;28;20088;-71
2022/06/18 13:00:46;;;;;;;7.93;5.53;;;11.80;99.90;;;;;;5032203;28;20045;-70
2022/06/18 13:03:57;;;;;;;7.63;5.00;;;11.80;99.90;;;;;;5051223;28;20037;-70
2022/06/18 13:06:39;;;;;;;9.30;5.22;;;11.80;99.90;;;;;;5029540;28;20274;-71
2022/06/18 13:09:31;;;;;;;6.43;4.53;;;11.80;99.90;;;;;;5033733;28;20033;-71
2022/06/18 13:12:23;;;;;;;8.27;5.72;;;11.80;99.90;;;;;;5041047;28;20100;-71
2022/06/18 13:15:29;;;;;;;9.52;6.22;;;11.70;99.90;;;;;;5053186;28;20033;-72
2022/06/18 13:18:21;;;;;;;9.20;6.63;;;11.70;99.90;;;;;;5032806;28;20075;-71
2022/06/18 13:20:52;;;;;;;11.70;7.80;;;11.70;99.90;;;;;;5066490;28;20028;-72
2022/06/18 13:29:16;;;;;;;6.95;5.25;;;11.60;99.90;;;;;;5033719;28;20445;-69
2022/06/18 13:32:24;;;;;;;11.10;5.82;;;11.60;99.90;;;;;;5023476;28;20021;-69
2022/06/18 13:35:00;;;;;;;8.20;5.15;;;11.60;99.90;;;;;;5033708;28;20504;-70
2022/06/18 13:37:48;;;;;;;7.90;4.70;;;11.60;99.90;;;;;;5033790;28;20021;-70
2022/06/18 13:40:34;;;;;;;13.30;5.30;;;11.50;99.90;;;;;;5043474;28;20059;-69
2022/06/18 13:43:11;;;;;;;8.93;4.53;;;11.50;99.90;;;;;;5054369;28;20021;-70
2022/06/18 13:45:56;;;;;;;7.65;4.47;;;11.50;99.90;;;;;;5054802;28;20041;-69